createdAt,value
2023-05-10T00:01:14.569Z,101379.00
2023-05-10T00:06:17.403Z,101382.00
2023-05-10T00:11:22.193Z,101378.20
2023-05-10T00:16:25.637Z,101377.20
2023-05-10T00:21:29.442Z,101382.20
2023-05-10T00:26:32.025Z,101378.20
2023-05-10T00:31:34.719Z,101374.00
2023-05-10T00:36:37.707Z,101370.60
2023-05-10T00:41:40.359Z,101363.00
2023-05-10T00:46:43.013Z,101364.20
2023-05-10T00:51:46.000Z,101367.00
2023-05-10T00:56:50.329Z,101370.80
2023-05-10T01:01:53.172Z,101375.00
2023-05-10T01:06:55.715Z,101373.20
2023-05-10T01:11:58.504Z,101373.40
2023-05-10T01:17:03.134Z,101360.20
2023-05-10T01:22:49.054Z,101357.40
2023-05-10T01:28:15.635Z,101354.60
2023-05-10T01:33:30.390Z,101358.20
2023-05-10T01:38:51.669Z,101352.00
2023-05-10T01:44:29.914Z,101354.40
2023-05-10T01:49:41.329Z,101356.80
2023-05-10T01:54:54.305Z,101358.00
2023-05-10T01:59:58.381Z,101356.20
2023-05-10T02:05:01.495Z,101356.80
2023-05-10T02:10:08.552Z,101360.20
2023-05-10T02:15:15.746Z,101357.80
2023-05-10T02:20:20.270Z,101353.00
2023-05-10T02:25:25.968Z,101354.60
2023-05-10T02:30:30.419Z,101361.00
2023-05-10T02:35:34.492Z,101360.00
2023-05-10T02:40:39.093Z,101359.80
2023-05-10T02:45:44.068Z,101353.60
2023-05-10T02:50:52.203Z,101345.20
2023-05-10T02:56:01.627Z,101343.20
2023-05-10T03:01:04.440Z,101346.40
2023-05-10T03:06:07.031Z,101337.80
2023-05-10T03:11:43.931Z,101326.00
2023-05-10T03:16:58.355Z,101314.80
2023-05-10T03:22:09.674Z,101311.60
2023-05-10T03:27:15.324Z,101300.00
2023-05-10T03:32:18.252Z,101299.60
2023-05-10T03:37:20.816Z,101283.60
2023-05-10T03:42:23.441Z,101273.60
2023-05-10T03:47:26.124Z,101269.80
2023-05-10T03:52:28.889Z,101264.40
2023-05-10T03:57:31.438Z,101262.40
2023-05-10T04:02:34.253Z,101258.20
2023-05-10T04:07:37.089Z,101250.80
2023-05-10T04:12:39.672Z,101251.80
2023-05-10T04:17:42.248Z,101248.20
2023-05-10T04:22:44.820Z,101248.40
2023-05-10T04:27:47.410Z,101244.80
2023-05-10T04:32:50.517Z,101245.80
2023-05-10T04:37:53.096Z,101238.20
2023-05-10T04:42:55.635Z,101234.00
2023-05-10T04:47:58.254Z,101229.80
2023-05-10T04:53:00.994Z,101221.80
2023-05-10T04:58:03.948Z,101215.00
2023-05-10T05:03:07.181Z,101214.20
2023-05-10T05:08:09.960Z,101208.40
2023-05-10T05:13:13.761Z,101205.40
2023-05-10T05:18:16.489Z,101200.80
2023-05-10T05:23:19.851Z,101198.20
2023-05-10T05:28:23.125Z,101195.60
2023-05-10T05:33:25.830Z,101196.00
2023-05-10T05:38:28.584Z,101198.80
2023-05-10T05:43:31.434Z,101199.40
2023-05-10T05:48:34.263Z,101197.20
2023-05-10T05:53:37.087Z,101199.60
2023-05-10T05:58:40.025Z,101198.80
2023-05-10T06:03:42.757Z,101198.40
2023-05-10T06:08:45.652Z,101196.00
2023-05-10T06:13:48.749Z,101196.00
2023-05-10T06:18:52.311Z,101199.80
2023-05-10T06:23:54.823Z,101197.20
2023-05-10T06:28:57.413Z,101199.60
2023-05-10T06:33:59.940Z,101196.40
2023-05-10T06:39:02.634Z,101198.20
2023-05-10T06:44:05.289Z,101199.20
2023-05-10T06:49:07.962Z,101191.60
2023-05-10T06:54:13.086Z,101195.80
2023-05-10T06:59:17.486Z,101193.40
2023-05-10T07:04:20.222Z,101189.20
2023-05-10T07:09:22.843Z,101183.80
2023-05-10T07:14:25.493Z,101197.80
2023-05-10T07:19:28.114Z,101193.80
2023-05-10T07:24:32.158Z,101195.80
2023-05-10T07:29:34.825Z,101201.00
2023-05-10T07:34:37.442Z,101200.20
2023-05-10T07:39:40.023Z,101202.20
2023-05-10T07:44:42.841Z,101201.60
2023-05-10T07:49:45.531Z,101201.20
2023-05-10T07:54:48.109Z,101210.40
2023-05-10T07:59:50.780Z,101208.20
2023-05-10T08:04:53.833Z,101216.00
2023-05-10T08:09:56.713Z,101205.20
2023-05-10T08:14:59.343Z,101208.80
2023-05-10T08:20:02.426Z,101206.60
2023-05-10T08:25:06.109Z,101203.80
2023-05-10T08:30:10.112Z,101210.20
2023-05-10T08:35:12.732Z,101209.60
2023-05-10T08:40:16.619Z,101208.40
2023-05-10T08:45:21.479Z,101218.60
2023-05-10T08:50:26.303Z,101222.20
2023-05-10T08:55:29.164Z,101220.40
2023-05-10T09:00:32.317Z,101226.60
2023-05-10T09:05:37.177Z,101223.20
2023-05-10T09:10:41.341Z,101222.20
2023-05-10T09:15:46.226Z,101217.60
2023-05-10T09:20:49.969Z,101229.00
2023-05-10T09:26:08.593Z,101223.20
2023-05-10T09:31:11.214Z,101217.20
2023-05-10T09:36:15.196Z,101218.80
2023-05-10T09:41:29.568Z,101216.80
2023-05-10T09:46:43.947Z,101216.60
2023-05-10T09:51:47.625Z,101211.00
2023-05-10T09:56:53.768Z,101209.80
2023-05-10T10:02:01.518Z,101207.60
2023-05-10T10:07:06.364Z,101206.40
2023-05-10T10:12:11.106Z,101195.20
2023-05-10T10:17:16.628Z,101188.60
2023-05-10T10:22:19.272Z,101187.40
2023-05-10T10:27:40.388Z,101198.00
2023-05-10T10:33:29.243Z,101186.20
2023-05-10T10:39:00.203Z,101181.40
2023-05-10T10:44:39.078Z,101193.20
2023-05-10T10:49:41.849Z,101179.80
2023-05-10T10:55:07.179Z,101177.80
2023-05-10T11:00:30.392Z,101173.40
2023-05-10T11:05:41.462Z,101170.60
2023-05-10T11:11:04.789Z,101174.20
2023-05-10T11:16:16.146Z,101166.60
2023-05-10T11:21:28.012Z,101150.20
2023-05-10T11:26:36.521Z,101152.20
2023-05-10T11:31:46.233Z,101147.40
2023-05-10T11:36:55.450Z,101139.40
2023-05-10T11:42:01.291Z,101137.00
2023-05-10T11:47:04.200Z,101132.00
2023-05-10T11:52:08.614Z,101130.00
2023-05-10T11:57:11.182Z,101131.60
2023-05-10T12:02:15.436Z,101126.20
2023-05-10T12:07:18.524Z,101125.40
2023-05-10T12:12:21.132Z,101126.40
2023-05-10T12:17:29.951Z,101128.00
2023-05-10T12:22:35.888Z,101116.40
2023-05-10T12:27:38.647Z,101118.20
2023-05-10T12:32:43.077Z,101123.20
2023-05-10T12:37:45.973Z,101123.60
2023-05-10T12:42:50.178Z,101117.80
2023-05-10T12:47:52.921Z,101119.00
2023-05-10T12:52:56.020Z,101114.40
2023-05-10T12:57:58.781Z,101117.20
2023-05-10T13:03:01.621Z,101112.20
2023-05-10T13:08:04.329Z,101097.20
2023-05-10T13:13:08.630Z,101102.40
2023-05-10T13:18:11.425Z,101108.20
2023-05-10T13:23:14.118Z,101097.20
2023-05-10T13:28:16.832Z,101105.80
2023-05-10T13:33:19.440Z,101095.00
2023-05-10T13:38:22.544Z,101095.40
2023-05-10T13:43:25.451Z,101091.60
2023-05-10T13:48:28.250Z,101084.00
2023-05-10T13:53:30.890Z,101085.00
2023-05-10T13:59:24.105Z,101079.60
2023-05-10T14:04:27.050Z,101077.60
2023-05-10T14:09:30.000Z,101071.20
2023-05-10T14:14:32.996Z,101069.60
2023-05-10T14:19:35.584Z,101071.00
2023-05-10T14:24:39.152Z,101073.60
2023-05-10T14:29:41.760Z,101068.20
2023-05-10T14:34:44.432Z,101077.60
2023-05-10T14:39:47.059Z,101077.00
2023-05-10T14:44:49.710Z,101074.20
2023-05-10T14:49:52.617Z,101072.60
2023-05-10T14:54:55.632Z,101068.80
2023-05-10T14:59:58.611Z,101059.00
2023-05-10T15:05:01.994Z,101065.80
2023-05-10T15:10:06.510Z,101069.00
2023-05-10T15:15:09.554Z,101061.40
2023-05-10T15:20:12.703Z,101062.60
2023-05-10T15:25:16.931Z,101064.80
2023-05-10T15:30:19.872Z,101061.20
2023-05-10T15:35:22.661Z,101067.00
2023-05-10T15:40:26.164Z,101063.20
2023-05-10T15:45:29.005Z,101056.40
2023-05-10T15:50:31.983Z,101062.60
2023-05-10T15:55:35.344Z,101053.80
2023-05-10T16:00:39.191Z,101051.20
2023-05-10T16:05:42.012Z,101047.00
2023-05-10T16:10:45.229Z,101050.20
2023-05-10T16:15:47.866Z,101059.00
2023-05-10T16:20:50.624Z,101044.80
2023-05-10T16:25:53.754Z,101046.40
2023-05-10T16:30:56.506Z,101050.60
2023-05-10T16:35:59.165Z,101054.00
2023-05-10T16:41:03.604Z,101056.00
2023-05-10T16:46:12.952Z,101062.40
2023-05-10T16:51:15.712Z,101059.60
2023-05-10T16:56:18.460Z,101061.60
2023-05-10T17:01:21.508Z,101064.20
2023-05-10T17:06:25.333Z,101075.60
2023-05-10T17:11:29.827Z,101075.20
2023-05-10T17:16:32.681Z,101074.60
2023-05-10T17:21:35.665Z,101079.40
2023-05-10T17:26:38.282Z,101086.80
2023-05-10T17:31:40.952Z,101099.00
2023-05-10T17:36:43.666Z,101103.20
2023-05-10T17:41:46.370Z,101102.20
2023-05-10T17:46:48.979Z,101114.20
2023-05-10T17:51:54.919Z,101118.60
2023-05-10T17:56:58.278Z,101122.00
2023-05-10T18:02:02.675Z,101126.00
2023-05-10T18:07:05.256Z,101133.60
2023-05-10T18:12:07.988Z,101139.20
2023-05-10T18:17:10.874Z,101139.20
2023-05-10T18:22:13.763Z,101140.40
2023-05-10T18:27:16.534Z,101141.80
2023-05-10T18:32:19.149Z,101150.80
2023-05-10T18:37:21.765Z,101158.00
2023-05-10T18:42:24.507Z,101164.80
2023-05-10T18:47:27.747Z,101172.40
2023-05-10T18:52:30.379Z,101184.60
2023-05-10T18:57:32.946Z,101185.20
2023-05-10T19:02:36.676Z,101182.00
2023-05-10T19:07:43.389Z,101186.00
2023-05-10T19:12:45.988Z,101191.60
2023-05-10T19:17:48.758Z,101195.20
2023-05-10T19:23:08.575Z,101197.00
2023-05-10T19:28:12.672Z,101196.20
2023-05-10T19:33:15.363Z,101190.60
2023-05-10T19:38:25.774Z,101193.40
2023-05-10T19:43:33.305Z,101199.40
2023-05-10T19:48:36.946Z,101205.40
2023-05-10T19:53:44.179Z,101205.80
2023-05-10T19:58:47.010Z,101215.00
2023-05-10T20:03:49.595Z,101223.20
2023-05-10T20:08:52.277Z,101223.80
2023-05-10T20:13:54.967Z,101232.60
2023-05-10T20:18:57.760Z,101231.00
2023-05-10T20:24:00.522Z,101229.60
2023-05-10T20:29:03.685Z,101238.20
2023-05-10T20:34:06.428Z,101235.60
2023-05-10T20:39:09.745Z,101237.80
2023-05-10T20:44:12.466Z,101241.40
2023-05-10T20:49:15.185Z,101244.20
2023-05-10T20:54:17.850Z,101245.80
2023-05-10T20:59:21.840Z,101246.20
2023-05-10T21:04:25.927Z,101245.20
2023-05-10T21:09:28.661Z,101248.60
2023-05-10T21:14:31.267Z,101247.80
2023-05-10T21:19:34.026Z,101250.80
2023-05-10T21:24:36.676Z,101245.40
2023-05-10T21:29:39.290Z,101251.00
2023-05-10T21:34:42.003Z,101255.80
2023-05-10T21:39:44.729Z,101260.20
2023-05-10T21:44:47.936Z,101262.40
2023-05-10T21:49:50.588Z,101261.60
2023-05-10T21:54:53.139Z,101260.00
2023-05-10T21:59:55.885Z,101263.60
2023-05-10T22:04:58.544Z,101265.20
2023-05-10T22:10:01.340Z,101270.60
2023-05-10T22:20:11.080Z,101277.00
2023-05-10T22:25:13.771Z,101277.00
2023-05-10T22:30:17.133Z,101281.60
2023-05-10T22:35:20.283Z,101279.80
2023-05-10T22:40:22.901Z,101286.20
2023-05-10T22:45:25.772Z,101291.80
2023-05-10T22:50:30.784Z,101291.20
2023-05-10T22:55:33.599Z,101292.80
2023-05-10T23:00:36.357Z,101291.00
2023-05-10T23:05:38.961Z,101288.20
2023-05-10T23:10:41.651Z,101294.40
2023-05-10T23:15:44.217Z,101295.00
2023-05-10T23:20:46.920Z,101297.60
2023-05-10T23:25:49.536Z,101298.20
2023-05-10T23:30:56.784Z,101297.00
2023-05-10T23:35:59.441Z,101296.00
2023-05-10T23:41:02.060Z,101293.20
2023-05-10T23:46:06.491Z,101305.40
2023-05-10T23:51:09.159Z,101305.40
2023-05-10T23:56:11.871Z,101305.60
